createdAt,value
2023-03-01T00:01:29.663Z,36.83
2023-03-01T00:03:59.543Z,38.42
2023-03-01T00:06:33.244Z,32.15
2023-03-01T00:09:04.965Z,34.00
2023-03-01T00:11:35.552Z,35.05
2023-03-01T00:14:09.973Z,37.30
2023-03-01T00:16:45.874Z,36.17
2023-03-01T00:19:19.480Z,36.10
2023-03-01T00:21:51.610Z,36.15
2023-03-01T00:24:22.481Z,38.55
2023-03-01T00:26:58.412Z,36.50
2023-03-01T00:29:27.387Z,35.95
2023-03-01T00:31:58.734Z,36.83
2023-03-01T00:34:29.059Z,37.30
2023-03-01T00:37:08.207Z,38.03
2023-03-01T00:39:37.473Z,35.10
2023-03-01T00:42:08.710Z,34.75
2023-03-01T00:44:39.658Z,32.95
2023-03-01T00:47:09.228Z,34.03
2023-03-01T00:49:40.209Z,32.80
2023-03-01T00:52:11.440Z,33.25
2023-03-01T00:54:40.334Z,34.10
2023-03-01T00:57:11.555Z,32.97
2023-03-01T00:59:42.457Z,31.65
2023-03-01T01:02:13.679Z,34.33
2023-03-01T01:04:40.640Z,32.65
2023-03-01T01:07:11.935Z,32.53
2023-03-01T01:09:39.375Z,32.83
2023-03-01T01:12:10.985Z,32.95
2023-03-01T01:14:41.237Z,31.98
2023-03-01T01:17:10.794Z,33.03
2023-03-01T01:19:41.338Z,32.95
2023-03-01T01:22:12.727Z,32.30
2023-03-01T01:24:41.686Z,33.83
2023-03-01T01:27:11.123Z,31.05
2023-03-01T01:29:42.122Z,33.65
2023-03-01T01:32:13.372Z,31.15
2023-03-01T01:34:44.431Z,28.70
2023-03-01T01:37:13.623Z,30.42
2023-03-01T01:39:44.625Z,29.33
2023-03-01T01:42:20.884Z,31.95
2023-03-01T01:45:29.973Z,25.48
2023-03-01T01:48:07.973Z,28.25
2023-03-01T01:50:39.642Z,26.20
2023-03-01T01:53:21.960Z,29.88
2023-03-01T01:55:58.016Z,28.73
2023-03-01T01:58:32.549Z,29.13
2023-03-01T02:01:04.772Z,29.77
2023-03-01T02:03:38.580Z,28.85
2023-03-01T02:06:18.818Z,27.52
2023-03-01T02:08:50.607Z,28.33
2023-03-01T02:11:22.255Z,28.95
2023-03-01T02:13:53.490Z,28.13
2023-03-01T02:16:25.025Z,27.77
2023-03-01T02:18:54.531Z,28.13
2023-03-01T02:21:47.272Z,30.10
2023-03-01T02:24:46.993Z,27.52
2023-03-01T02:27:20.144Z,27.48
2023-03-01T02:29:50.125Z,28.02
2023-03-01T02:32:27.996Z,29.85
2023-03-01T02:34:57.650Z,29.58
2023-03-01T02:37:29.554Z,30.13
2023-03-01T02:40:03.908Z,28.38
2023-03-01T02:42:38.845Z,28.75
2023-03-01T02:45:08.521Z,28.63
2023-03-01T02:47:39.480Z,29.67
2023-03-01T02:50:30.962Z,28.58
2023-03-01T02:53:13.998Z,29.00
2023-03-01T02:55:43.273Z,29.65
2023-03-01T02:58:14.485Z,29.88
2023-03-01T03:00:47.977Z,29.05
2023-03-01T03:03:22.425Z,31.08
2023-03-01T03:05:51.806Z,29.58
2023-03-01T03:08:26.875Z,30.45
2023-03-01T03:10:56.886Z,28.70
2023-03-01T03:13:31.359Z,30.40
2023-03-01T03:16:03.562Z,28.75
2023-03-01T03:18:34.543Z,29.60
2023-03-01T03:21:03.936Z,29.17
2023-03-01T03:23:34.861Z,27.52
2023-03-01T03:26:07.692Z,28.83
2023-03-01T03:28:42.951Z,30.55
2023-03-01T03:31:14.408Z,28.52
2023-03-01T03:33:45.403Z,28.00
2023-03-01T03:36:20.132Z,31.17
2023-03-01T03:38:51.924Z,27.70
2023-03-01T03:41:21.341Z,29.40
2023-03-01T03:43:50.404Z,29.42
2023-03-01T03:46:21.577Z,31.85
2023-03-01T03:48:53.123Z,30.27
2023-03-01T03:51:25.802Z,29.40
2023-03-01T03:53:56.787Z,30.05
2023-03-01T03:56:28.604Z,30.42
2023-03-01T03:58:59.894Z,29.35
2023-03-01T04:01:29.337Z,29.40
2023-03-01T04:04:07.041Z,32.88
2023-03-01T04:06:38.297Z,29.65
2023-03-01T04:09:11.409Z,30.40
2023-03-01T04:11:42.709Z,30.17
2023-03-01T04:14:13.700Z,29.38
2023-03-01T04:16:47.033Z,30.10
2023-03-01T04:19:17.949Z,30.35
2023-03-01T04:21:49.168Z,28.40
2023-03-01T04:24:18.035Z,28.55
2023-03-01T04:26:49.243Z,26.65
2023-03-01T04:29:18.093Z,31.73
2023-03-01T04:31:52.253Z,26.17
2023-03-01T04:34:21.346Z,27.90
2023-03-01T04:36:52.691Z,29.73
2023-03-01T04:39:21.997Z,29.67
2023-03-01T04:41:53.215Z,27.80
2023-03-01T04:44:22.167Z,27.17
2023-03-01T04:46:53.366Z,30.45
2023-03-01T04:49:24.315Z,29.20
2023-03-01T04:51:55.792Z,29.85
2023-03-01T04:54:27.001Z,29.83
2023-03-01T04:56:56.539Z,31.30
2023-03-01T04:59:27.918Z,27.65
2023-03-01T05:01:59.955Z,30.80
2023-03-01T05:04:29.320Z,32.42
2023-03-01T05:07:01.807Z,26.55
2023-03-01T05:09:30.701Z,28.20
2023-03-01T05:12:02.005Z,29.83
2023-03-01T05:14:34.900Z,32.03
2023-03-01T05:17:07.065Z,27.23
2023-03-01T05:19:36.367Z,29.27
2023-03-01T05:22:06.035Z,28.30
2023-03-01T05:24:38.226Z,29.85
2023-03-01T05:27:07.456Z,30.10
2023-03-01T05:29:37.963Z,31.85
2023-03-01T05:32:09.394Z,30.17
2023-03-01T05:34:39.336Z,30.27
2023-03-01T05:37:11.508Z,28.52
2023-03-01T05:39:40.870Z,28.52
2023-03-01T05:42:14.440Z,29.60
2023-03-01T05:44:43.327Z,29.60
2023-03-01T05:47:12.582Z,31.23
2023-03-01T05:49:41.774Z,29.38
2023-03-01T05:52:13.410Z,29.50
2023-03-01T05:54:44.566Z,30.13
2023-03-01T05:57:15.887Z,29.60
2023-03-01T05:59:46.950Z,28.92
2023-03-01T06:04:49.372Z,28.02
2023-03-01T06:07:18.703Z,27.48
2023-03-01T06:09:49.779Z,29.23
2023-03-01T06:12:21.226Z,27.67
2023-03-01T06:14:52.298Z,29.08
2023-03-01T06:17:23.580Z,27.10
2023-03-01T06:19:54.586Z,27.10
2023-03-01T06:22:26.423Z,24.48
2023-03-01T06:24:55.314Z,27.98
2023-03-01T06:27:26.544Z,26.92
2023-03-01T06:29:53.773Z,30.02
2023-03-01T06:32:25.147Z,27.85
2023-03-01T06:34:52.125Z,27.00
2023-03-01T06:37:23.314Z,27.00
2023-03-01T06:39:52.295Z,26.48
2023-03-01T06:42:21.504Z,26.73
2023-03-01T06:44:50.404Z,28.05
2023-03-01T06:47:22.029Z,27.25
2023-03-01T06:52:20.412Z,26.55
2023-03-01T06:54:49.468Z,26.98
2023-03-01T06:57:18.873Z,27.75
2023-03-01T06:59:50.694Z,28.23
2023-03-01T07:02:22.115Z,25.20
2023-03-01T07:04:52.295Z,27.83
2023-03-01T07:07:21.986Z,29.15
2023-03-01T07:09:51.288Z,27.33
2023-03-01T07:12:22.500Z,28.63
2023-03-01T07:14:53.743Z,29.42
2023-03-01T07:17:23.103Z,29.23
2023-03-01T07:19:54.085Z,32.42
2023-03-01T07:22:23.302Z,32.00
2023-03-01T07:24:54.382Z,33.35
2023-03-01T07:27:25.714Z,28.88
2023-03-01T07:29:56.618Z,29.10
2023-03-01T07:32:27.925Z,26.55
2023-03-01T07:34:56.906Z,29.67
2023-03-01T07:37:28.379Z,35.90
2023-03-01T07:39:59.300Z,27.85
2023-03-01T07:42:30.627Z,26.15
2023-03-01T07:44:59.544Z,26.67
2023-03-01T07:47:31.140Z,25.92
2023-03-01T07:50:00.631Z,25.23
2023-03-01T07:52:32.553Z,26.60
2023-03-01T07:57:32.493Z,25.02
2023-03-01T08:00:01.389Z,24.17
2023-03-01T08:02:41.857Z,24.00
2023-03-01T08:05:11.526Z,24.10
2023-03-01T08:07:42.886Z,23.23
2023-03-01T08:10:12.652Z,20.75
2023-03-01T08:12:43.945Z,21.35
2023-03-01T08:15:13.044Z,20.85
2023-03-01T08:17:44.290Z,20.10
2023-03-01T08:20:13.657Z,20.88
2023-03-01T08:22:45.077Z,20.77
2023-03-01T08:25:14.180Z,19.98
2023-03-01T08:27:43.515Z,20.20
2023-03-01T08:30:12.947Z,23.13
2023-03-01T08:32:44.428Z,17.38
2023-03-01T08:35:13.446Z,18.80
2023-03-01T08:37:44.775Z,18.40
2023-03-01T08:40:14.518Z,18.88
2023-03-01T08:42:46.015Z,19.52
2023-03-01T08:45:19.133Z,17.23
2023-03-01T08:47:50.394Z,18.42
2023-03-01T08:50:21.427Z,18.00
2023-03-01T08:52:52.582Z,17.70
2023-03-01T08:55:21.494Z,18.42
2023-03-01T08:57:54.729Z,17.67
2023-03-01T09:00:24.179Z,17.95
2023-03-01T09:02:55.461Z,18.20
2023-03-01T09:05:24.586Z,18.70
2023-03-01T09:07:56.127Z,17.70
2023-03-01T09:10:25.393Z,18.30
2023-03-01T09:12:56.687Z,17.85
2023-03-01T09:15:26.492Z,17.60
2023-03-01T09:17:58.003Z,18.48
2023-03-01T09:20:26.938Z,19.45
2023-03-01T09:22:58.192Z,18.80
2023-03-01T09:25:25.597Z,18.77
2023-03-01T09:27:58.166Z,18.25
2023-03-01T09:30:27.475Z,18.73
2023-03-01T09:33:00.198Z,17.05
2023-03-01T09:35:31.333Z,17.52
2023-03-01T09:40:32.537Z,15.55
2023-03-01T09:43:31.374Z,18.08
2023-03-01T09:46:07.790Z,17.88
2023-03-01T09:48:45.897Z,17.55
2023-03-01T09:51:36.810Z,17.75
2023-03-01T09:54:11.364Z,17.05
2023-03-01T09:57:28.704Z,16.92
2023-03-01T10:00:21.868Z,16.45
2023-03-01T10:03:00.797Z,16.17
2023-03-01T10:05:42.886Z,19.83
2023-03-01T10:08:11.806Z,15.90
2023-03-01T10:10:49.565Z,15.77
2023-03-01T10:14:03.895Z,15.13
2023-03-01T10:16:57.028Z,16.25
2023-03-01T10:19:32.105Z,17.67
2023-03-01T10:22:32.812Z,15.25
2023-03-01T10:25:06.988Z,17.48
2023-03-01T10:27:50.305Z,15.57
2023-03-01T10:30:42.343Z,15.95
2023-03-01T10:33:35.112Z,16.52
2023-03-01T10:36:06.925Z,14.35
2023-03-01T10:39:21.334Z,14.65
2023-03-01T10:42:08.235Z,16.00
2023-03-01T10:44:50.053Z,13.30
2023-03-01T10:47:27.694Z,14.10
2023-03-01T10:50:20.555Z,13.07
2023-03-01T10:53:03.007Z,12.57
2023-03-01T10:55:40.757Z,10.75
2023-03-01T10:58:16.040Z,12.48
2023-03-01T11:00:50.236Z,12.68
2023-03-01T11:03:25.106Z,12.77
2023-03-01T11:05:57.884Z,11.48
2023-03-01T11:08:46.640Z,11.52
2023-03-01T11:11:37.982Z,12.43
2023-03-01T11:14:27.711Z,11.38
2023-03-01T11:17:05.793Z,11.55
2023-03-01T11:19:36.880Z,11.52
2023-03-01T11:22:16.489Z,11.38
2023-03-01T11:24:57.334Z,10.80
2023-03-01T11:27:45.944Z,11.38
2023-03-01T11:30:31.952Z,12.80
2023-03-01T11:33:11.848Z,11.95
2023-03-01T11:35:57.663Z,13.65
2023-03-01T11:38:30.533Z,11.25
2023-03-01T11:41:09.145Z,11.63
2023-03-01T11:43:40.436Z,10.98
2023-03-01T11:46:36.313Z,12.40
2023-03-01T11:49:35.484Z,11.13
2023-03-01T11:52:24.621Z,10.23
2023-03-01T11:55:16.396Z,10.77
2023-03-01T11:58:11.348Z,10.50
2023-03-01T12:01:04.778Z,10.63
2023-03-01T12:03:53.595Z,10.48
2023-03-01T12:06:29.840Z,11.07
2023-03-01T12:09:07.019Z,10.43
2023-03-01T12:11:47.696Z,10.38
2023-03-01T12:14:45.970Z,10.30
2023-03-01T12:17:39.302Z,10.98
2023-03-01T12:20:50.880Z,11.98
2023-03-01T12:23:48.234Z,10.20
2023-03-01T12:26:34.806Z,10.23
2023-03-01T12:29:34.712Z,11.93
2023-03-01T12:32:22.553Z,11.57
2023-03-01T12:34:59.935Z,16.90
2023-03-01T12:37:43.965Z,10.88
2023-03-01T12:40:15.903Z,10.85
2023-03-01T12:45:41.629Z,11.13
2023-03-01T12:48:52.381Z,14.32
2023-03-01T12:51:29.534Z,16.00
2023-03-01T12:54:02.830Z,11.32
2023-03-01T12:56:36.254Z,11.90
2023-03-01T12:59:07.314Z,10.88
2023-03-01T13:02:00.687Z,10.50
2023-03-01T13:04:59.982Z,9.48
2023-03-01T13:07:29.319Z,11.10
2023-03-01T13:10:09.291Z,10.13
2023-03-01T13:12:53.629Z,10.45
2023-03-01T13:15:24.801Z,10.50
2023-03-01T13:18:00.129Z,11.15
2023-03-01T13:20:36.834Z,10.75
2023-03-01T13:23:27.206Z,11.70
2023-03-01T13:26:16.898Z,11.98
2023-03-01T13:28:54.785Z,11.48
2023-03-01T13:31:28.841Z,11.40
2023-03-01T13:34:04.216Z,10.25
2023-03-01T13:36:37.209Z,12.82
2023-03-01T13:39:48.154Z,10.13
2023-03-01T13:42:38.088Z,10.25
2023-03-01T13:45:18.906Z,11.40
2023-03-01T13:47:55.828Z,11.15
2023-03-01T13:50:34.358Z,10.50
2023-03-01T13:53:07.396Z,10.65
2023-03-01T13:55:48.140Z,9.52
2023-03-01T13:58:28.977Z,11.75
2023-03-01T14:01:07.636Z,11.07
2023-03-01T14:03:44.802Z,10.75
2023-03-01T14:06:21.205Z,10.45
2023-03-01T14:09:02.920Z,11.13
2023-03-01T14:11:34.832Z,9.98
2023-03-01T14:14:27.405Z,13.65
2023-03-01T14:17:16.059Z,10.98
2023-03-01T14:19:47.537Z,10.82
2023-03-01T14:22:28.135Z,11.68
2023-03-01T14:25:20.659Z,12.05
2023-03-01T14:28:23.012Z,12.23
2023-03-01T14:30:56.341Z,12.68
2023-03-01T14:33:29.825Z,10.73
2023-03-01T14:36:12.776Z,11.23
2023-03-01T14:38:44.708Z,11.77
2023-03-01T14:41:19.058Z,12.45
2023-03-01T14:43:52.643Z,10.32
2023-03-01T14:46:32.558Z,11.25
2023-03-01T14:49:16.822Z,9.55
2023-03-01T14:52:10.331Z,10.43
2023-03-01T14:54:55.976Z,12.77
2023-03-01T14:57:27.541Z,10.30
2023-03-01T15:00:03.537Z,10.55
2023-03-01T15:02:33.953Z,11.38
2023-03-01T15:05:09.015Z,12.30
2023-03-01T15:07:44.220Z,12.10
2023-03-01T15:10:23.760Z,12.18
2023-03-01T15:12:53.969Z,12.05
2023-03-01T15:15:29.990Z,10.90
2023-03-01T15:18:05.332Z,12.00
2023-03-01T15:20:39.107Z,12.25
2023-03-01T15:23:22.805Z,11.70
2023-03-01T15:25:59.806Z,11.65
2023-03-01T15:28:44.388Z,11.45
2023-03-01T15:31:26.076Z,11.80
2023-03-01T15:34:12.196Z,12.35
2023-03-01T15:36:51.312Z,12.25
2023-03-01T15:39:41.886Z,12.75
2023-03-01T15:42:34.105Z,12.77
2023-03-01T15:48:06.491Z,14.43
2023-03-01T15:50:42.973Z,13.10
2023-03-01T15:53:17.514Z,14.32
2023-03-01T15:55:51.814Z,14.00
2023-03-01T15:58:25.848Z,14.40
2023-03-01T16:01:02.641Z,14.55
2023-03-01T16:03:32.785Z,13.52
2023-03-01T16:06:04.247Z,14.45
2023-03-01T16:11:07.857Z,14.15
2023-03-01T16:13:37.397Z,13.35
2023-03-01T16:16:08.642Z,14.05
2023-03-01T16:21:09.442Z,13.23
2023-03-01T16:23:39.034Z,13.43
2023-03-01T16:26:10.144Z,13.90
2023-03-01T16:28:42.856Z,13.57
2023-03-01T16:31:14.507Z,14.45
2023-03-01T16:33:45.771Z,13.40
2023-03-01T16:36:17.267Z,15.10
2023-03-01T16:38:49.085Z,14.65
2023-03-01T16:41:22.593Z,13.55
2023-03-01T16:43:54.319Z,13.63
2023-03-01T16:46:29.156Z,13.55
2023-03-01T16:49:00.768Z,13.02
2023-03-01T16:51:31.180Z,14.18
2023-03-01T16:54:02.807Z,13.38
2023-03-01T16:56:34.135Z,13.25
2023-03-01T17:01:40.690Z,13.18
2023-03-01T17:04:16.167Z,12.75
2023-03-01T17:06:47.607Z,13.73
2023-03-01T17:11:52.701Z,13.82
2023-03-01T17:14:25.138Z,13.02
2023-03-01T17:16:54.422Z,12.88
2023-03-01T17:19:23.994Z,14.07
2023-03-01T17:21:55.075Z,14.38
2023-03-01T17:24:25.859Z,14.25
2023-03-01T17:26:59.102Z,13.75
2023-03-01T17:29:31.563Z,14.82
2023-03-01T17:32:03.501Z,15.43
2023-03-01T17:34:34.015Z,14.05
2023-03-01T17:37:05.333Z,14.95
2023-03-01T17:39:36.613Z,15.48
2023-03-01T17:42:08.231Z,15.07
2023-03-01T17:44:41.048Z,14.90
2023-03-01T17:47:15.515Z,15.57
2023-03-01T17:49:44.794Z,15.00
2023-03-01T17:52:15.050Z,15.77
2023-03-01T17:54:46.481Z,15.95
2023-03-01T17:57:17.766Z,16.00
2023-03-01T17:59:46.988Z,16.50
2023-03-01T18:02:16.282Z,16.42
2023-03-01T18:07:18.175Z,16.05
2023-03-01T18:09:48.034Z,16.77
2023-03-01T18:12:19.023Z,16.20
2023-03-01T18:14:53.677Z,17.13
2023-03-01T18:17:28.550Z,16.70
2023-03-01T18:19:59.488Z,17.38
2023-03-01T18:22:33.536Z,17.65
2023-03-01T18:25:05.642Z,18.35
2023-03-01T18:27:37.039Z,17.95
2023-03-01T18:30:10.815Z,17.80
2023-03-01T18:32:40.710Z,18.55
2023-03-01T18:35:12.171Z,17.02
2023-03-01T18:37:41.115Z,19.15
2023-03-01T18:40:13.021Z,19.75
2023-03-01T18:42:44.177Z,19.75
2023-03-01T18:45:19.062Z,20.33
2023-03-01T18:47:50.062Z,22.05
2023-03-01T18:50:20.230Z,20.45
2023-03-01T18:52:51.948Z,21.65
2023-03-01T18:55:23.799Z,20.90
2023-03-01T18:57:54.878Z,22.20
2023-03-01T19:00:26.843Z,21.17
2023-03-01T19:02:58.068Z,22.77
2023-03-01T19:05:28.815Z,23.83
2023-03-01T19:08:00.276Z,22.88
2023-03-01T19:10:29.537Z,23.20
2023-03-01T19:13:00.937Z,23.33
2023-03-01T19:15:30.256Z,24.65
2023-03-01T19:20:33.255Z,26.10
2023-03-01T19:23:04.389Z,25.13
2023-03-01T19:28:05.266Z,24.77
2023-03-01T19:30:36.573Z,26.20
2023-03-01T19:33:08.104Z,27.83
2023-03-01T19:35:37.843Z,28.52
2023-03-01T19:38:08.979Z,28.30
2023-03-01T19:43:09.410Z,29.50
2023-03-01T19:45:40.759Z,27.75
2023-03-01T19:48:09.714Z,28.17
2023-03-01T19:50:42.305Z,27.10
2023-03-01T19:53:12.504Z,29.20
2023-03-01T19:55:44.857Z,27.90
2023-03-01T19:58:14.187Z,28.45
2023-03-01T20:00:48.617Z,26.65
2023-03-01T20:03:18.049Z,28.80
2023-03-01T20:05:49.739Z,28.45
2023-03-01T20:08:16.680Z,28.00
2023-03-01T20:10:48.019Z,27.25
2023-03-01T20:13:17.646Z,28.42
2023-03-01T20:15:47.167Z,29.98
2023-03-01T20:18:16.098Z,28.08
2023-03-01T20:20:51.395Z,26.33
2023-03-01T20:23:23.562Z,28.02
2023-03-01T20:26:01.111Z,28.15
2023-03-01T20:28:33.645Z,28.95
2023-03-01T20:31:10.193Z,26.05
2023-03-01T20:33:43.767Z,27.90
2023-03-01T20:36:13.788Z,28.15
2023-03-01T20:38:44.846Z,27.88
2023-03-01T20:41:14.459Z,26.77
2023-03-01T20:43:45.856Z,25.73
2023-03-01T20:46:15.326Z,25.25
2023-03-01T20:48:46.442Z,25.98
2023-03-01T20:51:19.019Z,28.25
2023-03-01T20:53:50.077Z,26.95
2023-03-01T20:56:21.172Z,26.38
2023-03-01T20:59:18.308Z,26.98
2023-03-01T21:01:47.893Z,28.92
2023-03-01T21:04:19.985Z,26.88
2023-03-01T21:06:49.678Z,28.45
2023-03-01T21:09:21.196Z,29.67
2023-03-01T21:11:51.176Z,28.90
2023-03-01T21:14:20.484Z,28.92
2023-03-01T21:16:53.851Z,28.48
2023-03-01T21:19:26.013Z,30.10
2023-03-01T21:21:57.305Z,30.25
2023-03-01T21:24:26.249Z,29.92
2023-03-01T21:26:57.570Z,29.92
2023-03-01T21:29:27.002Z,30.15
2023-03-01T21:31:56.886Z,29.02
2023-03-01T21:34:25.931Z,31.55
2023-03-01T21:36:57.553Z,28.27
2023-03-01T21:39:29.077Z,28.65
2023-03-01T21:42:04.515Z,30.05
2023-03-01T21:44:36.216Z,30.33
2023-03-01T21:47:05.647Z,31.92
2023-03-01T21:49:36.664Z,31.48
2023-03-01T21:52:08.363Z,31.17
2023-03-01T21:54:39.745Z,30.60
2023-03-01T21:57:11.252Z,32.63
2023-03-01T21:59:40.406Z,33.22
2023-03-01T22:02:16.730Z,34.13
2023-03-01T22:04:48.295Z,33.15
2023-03-01T22:07:17.863Z,33.70
2023-03-01T22:09:48.854Z,35.20
2023-03-01T22:12:18.285Z,35.20
2023-03-01T22:14:49.418Z,36.78
2023-03-01T22:17:18.760Z,35.70
2023-03-01T22:19:50.026Z,33.92
2023-03-01T22:22:19.739Z,35.67
2023-03-01T22:24:50.679Z,35.38
2023-03-01T22:27:19.895Z,36.80
2023-03-01T22:29:51.153Z,35.08
2023-03-01T22:32:22.753Z,37.85
2023-03-01T22:34:53.825Z,36.28
2023-03-01T22:37:23.196Z,38.97
2023-03-01T22:39:54.793Z,36.70
2023-03-01T22:42:24.370Z,37.17
2023-03-01T22:44:55.368Z,36.03
2023-03-01T22:49:58.028Z,34.35
2023-03-01T22:52:29.296Z,37.00
2023-03-01T22:54:56.506Z,37.88
2023-03-01T22:57:28.213Z,37.40
2023-03-01T22:59:57.448Z,37.42
2023-03-01T23:02:29.512Z,35.75
2023-03-01T23:04:58.766Z,38.22
2023-03-01T23:07:28.255Z,37.95
2023-03-01T23:10:04.151Z,37.28
2023-03-01T23:12:33.381Z,37.53
2023-03-01T23:15:04.467Z,36.15
2023-03-01T23:17:32.117Z,39.05
2023-03-01T23:20:12.697Z,38.08
2023-03-01T23:22:44.398Z,38.53
2023-03-01T23:25:13.415Z,38.90
2023-03-01T23:27:44.721Z,39.30
2023-03-01T23:30:16.061Z,38.60
2023-03-01T23:32:47.270Z,38.65
2023-03-01T23:35:16.770Z,39.13
2023-03-01T23:37:47.589Z,39.05
2023-03-01T23:40:17.075Z,39.05
2023-03-01T23:42:46.924Z,39.22
2023-03-01T23:45:18.197Z,39.17
2023-03-01T23:47:47.876Z,39.60
2023-03-01T23:50:19.000Z,37.90
2023-03-01T23:55:21.716Z,36.57
2023-03-01T23:57:51.278Z,38.28
